• Join FlightAware (Why Join?)
  • Login
  • US Flag 
09:52AM EST


 

Airport Tracker/Info


-or-


 

Live Flight TrackerFlight Track Log ✈ AAL2364 ✈ 17-Mar-2014 ✈ KTPA - KDFW

Flight Track Log - Related Links

Times and Time Zones

All times are in EDT time to prevent confusion due to time zone crossing. See the AAL2364 flight status page for this flight to view local times or setup timezone preferences in your user account.

Time Position Orientation Groundspeed Altitude Reporting Facility
EDT Latitude Longitude Course Direction KTS MPH feet Rate Location/Type
07:55PM 27.9500 -82.5500 180° South 162 186 1,200  Level Tampa TRACON
07:56PM 27.9167 -82.5667 204° Southwest 193 222 3,500 2,500 Climbing Tampa TRACON
07:57PM 27.8833 -82.6167 233° Southwest 251 289 6,200 2,850 Climbing Tampa TRACON
07:58PM 28.2407 -82.6818 334° Northwest  Level FlightAware Approximate
07:58PM 27.9667 -82.6500 341° North 307 353 9,200  Level Tampa TRACON
07:59PM 28.3339 -82.7338 327° Northwest  Level FlightAware Approximate
08:00PM 28.4248 -82.7833 North  Level FlightAware Approximate
08:00PM 28.0933 -82.6703 352° North 330 380 12,100  Level Miami Center
08:06PM 28.6081 -82.7594 322° Northwest 390 449 25,500 2,182 Climbing FlightAware ADS-B
08:06PM 28.6718 -82.8155 322° Northwest 415 478 26,100 886 Climbing FlightAware ADS-B
08:07PM 28.7331 -82.8694 322° Northwest 410 472 26,800 1,528 Climbing Miami Center
08:08PM 28.8314 -82.9494 325° Northwest 430 495 28,800 1,477 Climbing Miami Center
08:09PM 28.9492 -83.0444 325° Northwest 425 489 30,000 558 Climbing Jacksonville Center
08:10PM 29.0472 -83.1253 324° Northwest 430 495 30,000 850 Level Jacksonville Center
08:11PM 29.1450 -83.2064 324° Northwest 435 501 31,700 950 Climbing Jacksonville Center
08:12PM 29.2389 -83.2828 325° Northwest 427 491 31,900 150 Climbing Jacksonville Center
08:13PM 29.3367 -83.3619 325° Northwest 427 491 32,000 50 Climbing Jacksonville Center
08:14PM 29.4197 -83.4339 323° Northwest 427 491 32,000  Level Jacksonville Center
08:15PM 29.5175 -83.5108 326° Northwest 427 491 32,000  Level Jacksonville Center
08:16PM 29.6133 -83.5903 324° Northwest 427 491 32,000  Level Jacksonville Center
08:17PM 29.6878 -83.6814 313° West 397 457 32,000  Level Jacksonville Center
08:18PM 29.7164 -83.7942 286° West 376 433 32,000  Level Jacksonville Center
08:19PM 29.7467 -83.9069 287° West 369 425 32,000  Level Jacksonville Center
08:20PM 29.7750 -84.0172 287° West 369 425 32,000  Level Jacksonville Center
08:21PM 29.8075 -84.1278 289° West 369 425 32,000  Level Jacksonville Center
08:22PM 29.8356 -84.2383 286° West 362 417 32,000  Level Jacksonville Center
08:23PM 29.8700 -84.3489 290° West 362 417 32,000  Level Jacksonville Center
08:24PM 29.8978 -84.4619 286° West 362 417 32,000 150 Level Jacksonville Center
08:25PM 29.9278 -84.5750 287° West 362 417 32,300 1,700 Climbing Jacksonville Center
08:26PM 29.9556 -84.6761 288° West 357 411 35,400 1,700 Climbing Jacksonville Center
08:27PM 29.9833 -84.7775 288° West 343 395 35,700 300 Climbing Jacksonville Center
08:28PM 30.0089 -84.8811 286° West 343 395 36,000 100 Climbing Jacksonville Center
08:29PM 30.0364 -84.9894 286° West 343 395 35,900 -50 Descending Jacksonville Center
08:30PM 30.0556 -85.0956 282° West 338 389 35,900 50 Level Jacksonville Center
08:31PM 30.0767 -85.1992 283° West 338 389 36,000 50 Climbing Jacksonville Center
08:32PM 30.0975 -85.3053 283° West 338 389 36,000  Level Jacksonville Center
08:33PM 30.1164 -85.4114 282° West 338 389 36,000  Level Jacksonville Center
08:34PM 30.1328 -85.5247 280° West 345 397 36,000  Level Jacksonville Center
08:35PM 30.1533 -85.6383 282° West 357 411 36,000  Level Jacksonville Center
08:36PM 30.1822 -85.7544 286° West 357 411 36,000 -50 Level Jacksonville Center
08:37PM 30.2025 -85.8656 282° West 357 411 35,900 -50 Descending Jacksonville Center
08:38PM 30.2228 -85.9792 282° West 357 411 35,900 50 Level Jacksonville Center
08:39PM 30.2431 -86.0903 282° West 357 411 36,000 50 Climbing Jacksonville Center
08:40PM 30.2653 -86.2042 283° West 357 411 36,000  Level Jacksonville Center
08:41PM 30.2892 -86.3253 283° West 369 425 36,000  Level Jacksonville Center
08:42PM 30.3069 -86.4439 280° West 375 432 36,000  Level Jacksonville Center
08:43PM 30.3308 -86.5578 284° West 375 432 36,000  Level Jacksonville Center
08:44PM 30.3522 -86.6789 282° West 375 432 36,000  Level Jacksonville Center
08:45PM 30.3717 -86.8000 281° West 375 432 36,000  Level Jacksonville Center
08:46PM 30.3950 -86.9189 283° West 375 432 36,000  Level Jacksonville Center
08:48PM 30.4314 -87.1236 282° West 383 441 36,000  Level Houston Center
08:49PM 30.4519 -87.2472 281° West 388 447 36,000  Level Houston Center
08:50PM 30.4742 -87.3694 282° West 388 447 36,000  Level Houston Center
08:51PM 30.4956 -87.4958 281° West 397 457 36,000  Level Houston Center
08:52PM 30.5186 -87.6228 282° West 399 459 36,000  Level Houston Center
08:53PM 30.5397 -87.7514 281° West 402 463 36,000  Level Houston Center
08:54PM 30.5611 -87.8808 281° West 405 466 36,000  Level Houston Center
08:55PM 30.5883 -88.0364 282° West 406 467 36,000  Level Houston Center
08:56PM 30.6094 -88.1644 281° West 405 466 36,000  Level Houston Center
08:57PM 30.6297 -88.2933 280° West 405 466 36,000  Level Houston Center
08:58PM 30.6522 -88.4228 281° West 405 466 36,000  Level Houston Center
08:59PM 30.6722 -88.5525 280° West 405 466 36,000  Level Houston Center
09:00PM 30.6944 -88.6833 281° West 407 468 36,000 -244 Level Houston Center
09:01PM 30.7153 -88.8125 281° West 407 468 35,500 -780 Descending Houston Center
09:02PM 30.7361 -88.9425 281° West 404 465 34,400 -774 Descending Houston Center
09:03PM 30.7572 -89.0739 281° West 410 472 33,900 -194 Descending Houston Center
09:04PM 30.7836 -89.2336 281° West 416 479 34,000 49 Climbing Houston Center
09:05PM 30.8047 -89.3672 280° West 419 482 34,000 -49 Level Houston Center
09:06PM 30.8250 -89.5014 280° West 421 484 33,900  Descending Houston Center
09:07PM 30.8467 -89.6361 281° West 425 489 34,000 49 Climbing Houston Center
09:08PM 30.8675 -89.7717 280° West 426 490 34,000  Level Houston Center
09:09PM 30.8881 -89.9075 280° West 429 494 34,000 -484 Level Houston Center
09:11PM 30.9133 -90.0733 280° West 434 499 33,000 -927 Descending Houston Center
09:12PM 30.9339 -90.2133 280° West 441 507 32,100 -488 Descending Houston Center
09:13PM 30.9550 -90.3533 280° West 442 509 32,000 -49 Descending Houston Center
09:14PM 30.9750 -90.4881 280° West 428 493 32,000 -49 Level Houston Center
09:15PM 30.9950 -90.6228 280° West 427 491 31,900 -49 Descending Houston Center
09:16PM 31.0150 -90.7550 280° West 419 482 31,900  Level Houston Center
09:17PM 31.0344 -90.8889 280° West 422 486 31,900 48 Level Houston Center
09:18PM 31.0644 -91.0508 282° West 425 489 32,000 15 Climbing Houston Center
09:23PM 31.2575 -91.7986 287° West 434 499 32,000  Level FlightAware ADS-B (KHOU)
09:24PM 31.2743 -91.8655 287° West 434 499 32,000  Level FlightAware ADS-B (KHOU)
09:24PM 31.2908 -91.9310 287° West 431 496 32,000  Level FlightAware ADS-B (KHOU)
09:26PM 31.3408 -92.1313 287° West 430 495 32,000  Level FlightAware ADS-B (KHOU)
09:27PM 31.3712 -92.2536 287° West 428 493 32,000  Level FlightAware ADS-B (KHOU)
09:27PM 31.3900 -92.3294 287° West 426 490 32,000  Level FlightAware ADS-B (KHOU)
09:28PM 31.3918 -92.3365 287° West 426 490 32,000  Level FlightAware ADS-B (KHOU)
09:28PM 31.4206 -92.4535 287° West 424 488 32,000  Level FlightAware ADS-B (KHOU)
09:29PM 31.4395 -92.5300 287° West 423 487 32,000  Level FlightAware ADS-B (KHOU)
09:30PM 31.4707 -92.6579 286° West 422 486 32,000  Level FlightAware ADS-B (KHOU)
09:30PM 31.4872 -92.7254 286° West 422 486 32,000  Level FlightAware ADS-B (KHOU)
09:31PM 31.5036 -92.7931 286° West 422 486 32,000  Level FlightAware ADS-B (KHOU)
09:31PM 31.5196 -92.8589 286° West 422 486 32,000  Level FlightAware ADS-B (KHOU)
09:32PM 31.5356 -92.9249 286° West 422 486 32,000  Level FlightAware ADS-B (KHOU)
09:32PM 31.5505 -92.9869 286° West 422 486 32,000  Level FlightAware ADS-B (KHOU)
09:33PM 31.5668 -93.0547 286° West 422 486 32,000  Level FlightAware ADS-B (KHOU)
09:33PM 31.5804 -93.1113 286° West 422 486 32,000  Level FlightAware ADS-B (KHOU)
09:34PM 31.4850 -92.7163 286° West 423 487 32,000  Level FlightAware ADS-B
09:34PM 31.6146 -93.2531 286° West 423 487 32,000  Level FlightAware ADS-B (KHOU)
09:35PM 31.6301 -93.3191 286° West 424 488 32,000  Level FlightAware ADS-B (KHOU)
09:35PM 31.6458 -93.3853 286° West 425 489 32,000  Level FlightAware ADS-B (KHOU)
09:36PM 31.6629 -93.4672 284° West 427 491 32,000  Level FlightAware ADS-B (KHOU)
09:36PM 31.6650 -93.4778 284° West 427 491 32,000  Level FlightAware ADS-B (KHOU)
09:37PM 31.6951 -93.6292 283° West 427 491 32,000  Level FlightAware ADS-B
09:37PM 31.7022 -93.6648 284° West 428 493 32,000  Level FlightAware ADS-B (KHOU)
09:38PM 31.7184 -93.7455 284° West 429 494 32,000  Level FlightAware ADS-B (KHOU)
09:38PM 31.7262 -93.7844 283° West 428 493 32,000  Level FlightAware ADS-B
09:38PM 31.7322 -93.8143 284° West 430 495 32,000  Level FlightAware ADS-B (KHOU)
09:39PM 31.7423 -93.8650 283° West 429 494 32,000  Level FlightAware ADS-B
09:39PM 31.7457 -93.8825 284° West 430 495 32,000  Level FlightAware ADS-B (KHOU)
09:39PM 31.7537 -93.9223 283° West 429 494 32,000  Level FlightAware ADS-B
09:39PM 31.7592 -93.9504 284° West 430 495 32,000  Level FlightAware ADS-B (KHOU)
09:40PM 31.7734 -94.0230 283° West 427 491 32,000  Level FlightAware ADS-B
09:40PM 31.7858 -94.0859 283° West 427 491 32,000  Level FlightAware ADS-B
09:41PM 31.7887 -94.1008 284° West 428 493 32,000  Level FlightAware ADS-B
09:41PM 31.8006 -94.1612 284° West 427 491 32,000  Level FlightAware ADS-B
09:42PM 31.8158 -94.2386 283° West 426 490 32,000  Level FlightAware ADS-B
09:42PM 31.8092 -94.2046 283° West 426 490 32,000  Level FlightAware ADS-B
09:42PM 31.8288 -94.3049 284° West 425 489 32,000  Level FlightAware ADS-B
09:43PM 31.8419 -94.3725 283° West 425 489 32,000  Level FlightAware ADS-B
09:43PM 31.8485 -94.4064 283° West 424 488 32,000  Level FlightAware ADS-B
09:43PM 31.8553 -94.4415 283° West 424 488 32,000  Level FlightAware ADS-B
09:43PM 31.8652 -94.4927 282° West 421 484 32,000  Level FlightAware ADS-B
09:44PM 31.8673 -94.5032 283° West 423 487 32,000  Level FlightAware ADS-B
09:44PM 31.8809 -94.5744 283° West 423 487 32,000  Level FlightAware ADS-B
09:44PM 31.8902 -94.6231 282° West 421 484 32,000  Level FlightAware ADS-B
09:45PM 31.8937 -94.6410 283° West 422 486 32,000  Level FlightAware ADS-B
09:45PM 31.9067 -94.7086 283° West 422 486 32,000  Level FlightAware ADS-B
09:46PM 31.9195 -94.7753 283° West 421 484 32,000  Level FlightAware ADS-B
09:46PM 31.9319 -94.8403 283° West 421 484 32,000  Level FlightAware ADS-B
09:47PM 31.9448 -94.9084 283° West 420 483 32,000  Level FlightAware ADS-B
09:47PM 31.9560 -94.9677 283° West 419 482 32,000  Level FlightAware ADS-B
09:48PM 31.9703 -95.0434 283° West 419 482 32,000  Level FlightAware ADS-B
09:48PM 31.9825 -95.1087 283° West 419 482 32,000  Level FlightAware ADS-B
09:49PM 31.9949 -95.1741 284° West 419 482 32,000  Level FlightAware ADS-B
09:49PM 32.0269 -95.2818 291° West 418 481 32,000  Level FlightAware ADS-B
09:50PM 32.0472 -95.3473 290° West 419 482 32,000  Level FlightAware ADS-B
09:50PM 32.0666 -95.4103 290° West 418 481 32,000  Level FlightAware ADS-B
09:51PM 32.0859 -95.4727 290° West 418 481 32,000  Level FlightAware ADS-B
09:51PM 32.1059 -95.5378 290° West 418 481 32,000  Level FlightAware ADS-B
09:52PM 32.1258 -95.6025 290° West 417 480 32,000 -508 Level FlightAware ADS-B
09:52PM 32.1414 -95.6536 290° West 413 475 31,500 -1,714 Descending FlightAware ADS-B
09:53PM 32.1743 -95.7614 290° West 409 471 29,800 -2,692 Descending FlightAware ADS-B (KHOU)
09:54PM 32.1933 -95.8239 290° West 413 475 28,000 -3,458 Descending FlightAware ADS-B (KHOU)
09:54PM 32.2141 -95.8917 290° West 411 473 26,400 -2,852 Descending FlightAware ADS-B (KHOU)
09:55PM 32.2330 -95.9538 290° West 403 464 25,100 -2,647 Descending FlightAware ADS-B (KHOU)
09:55PM 32.2563 -96.0309 290° West 397 457 23,400 -2,696 Descending FlightAware ADS-B
09:56PM 32.2754 -96.0954 290° West 394 453 22,000 -2,613 Descending FlightAware ADS-B (KHOU)
09:56PM 32.2938 -96.1569 290° West 390 449 20,700 -2,421 Descending FlightAware ADS-B (KHOU)
09:57PM 32.3065 -96.1993 290° West 386 444 19,700 -2,500 Descending FlightAware ADS-B (KHOU)
09:57PM 32.3292 -96.2743 290° West 381 438 18,200 -2,571 Descending FlightAware ADS-B (KHOU)
09:58PM 32.3471 -96.3336 290° West 373 429 17,000 -2,377 Descending FlightAware ADS-B (KHOU)
09:58PM 32.3596 -96.3748 290° West 364 419 16,100 -1,188 Descending FlightAware ADS-B (KHOU)
10:03PM 32.6398 -96.7568 314° West 341 392 11,200 -945 Descending FlightAware ADS-B
10:03PM 32.6798 -96.8047 314° West 305 351 11,200  Level FlightAware ADS-B
10:04PM 32.7155 -96.8477 314° West 263 303 11,200  Level FlightAware ADS-B
10:05PM 32.7412 -96.8786 314° West 235 270 11,200  Level FlightAware ADS-B
10:05PM 32.7587 -96.8979 326° Northwest 233 268 11,200  Level FlightAware ADS-B
10:05PM 32.7671 -96.9019 343° North 236 272 11,200 -300 Level FlightAware ADS-B
10:05PM 32.7770 -96.9030 357° North 236 272 11,100 -1,714 Descending FlightAware ADS-B
10:06PM 32.8179 -96.9027 180° South 236 272 9,800 -2,204 Descending FlightAware ADS-B
10:06PM 32.8322 -96.9028 359° North 235 270 9,300 -2,182 Descending FlightAware ADS-B
10:06PM 32.8524 -96.9031 359° North 236 272 8,600 -2,143 Descending FlightAware ADS-B
10:07PM 32.8743 -96.9036 359° North 238 274 7,800 -2,341 Descending FlightAware ADS-B
10:07PM 32.8986 -96.9040 359° North 237 273 7,000 -2,195 Descending FlightAware ADS-B
10:07PM 32.9204 -96.9042 359° North 234 269 6,300 -2,108 Descending FlightAware ADS-B
10:08PM 32.9401 -96.9042 360° North 235 270 5,700 -2,167 Descending FlightAware ADS-B
10:08PM 32.9529 -96.9046 357° North 232 267 5,000 -2,195 Descending FlightAware ADS-B
10:08PM 32.9862 -96.9118 350° North 234 269 4,200 -1,902 Descending FlightAware ADS-B
10:09PM 33.0008 -96.9179 341° North 227 261 3,700 -943 Descending FlightAware ADS-B
10:10PM 33.0306 -96.9584 292° West 183 211 3,100 -727 Descending FlightAware ADS-B
10:10PM 33.0337 -96.9677 292° West 181 208 2,900 -831 Descending FlightAware ADS-B
10:11PM 33.0213 -96.9951 208° Southwest 155 178 2,200 -447 Descending FlightAware ADS-B
10:11PM 32.9830 -97.0093 183° South 147 169 2,200 2,634 Level FlightAware ADS-B
10:12PM 32.9353 -96.9042 North 235 270 5,800 -758 Climbing FlightAware ADS-B (LKPR / PRG)
10:13PM 32.9167 -97.0000 North 129 148 1,000 -4,966 Descending Dallas / Fort Worth TRACON